Terminal Aerodrome Forecast
Issued by NWS Milwaukee/Sullivan, WI

Home | Current Version | Previous Version | Text Only | Print | Product List | Glossary On
Versions: 1 2 3 4 5 6 7 8 9 10 11 12 13 14 15 16 17 18 19 20 21 22 23 24 25 26 27 28 29 30 31 32 33 34 35 36 37 38 39 40 41 42 43 44 45 46 47 48 49
000
FTUS43 KMKX 210923 AAA
TAFMKE
TAF AMD
KMKE 210923Z 2109/2212 18006KT P6SM OVC040
      TEMPO 2110/2113 6SM -FZDZSN OVC030
     FM211300 18006KT 6SM -FZDZSN OVC017
     FM211500 18008KT 6SM -DZ BR OVC010
     FM212000 18010KT P6SM OVC015
     FM220500 18012KT P6SM OVC025=

USA.gov is the U.S. government's official web portal to all federal, state and local government web resources and services.